createdAt,value
2018-02-13T00:01:50.146Z,12.05
2018-02-13T00:04:18.564Z,12.70
2018-02-13T00:06:47.398Z,14.05
2018-02-13T00:09:15.815Z,11.18
2018-02-13T00:11:44.229Z,12.85
2018-02-13T00:14:12.634Z,13.80
2018-02-13T00:16:41.029Z,12.40
2018-02-13T00:19:09.470Z,13.18
2018-02-13T00:21:37.895Z,12.40
2018-02-13T00:24:06.307Z,13.82
2018-02-13T00:26:34.696Z,12.25
2018-02-13T00:29:03.104Z,14.13
2018-02-13T00:31:31.557Z,12.73
2018-02-13T00:33:59.961Z,13.62
2018-02-13T00:36:28.325Z,12.45
2018-02-13T00:38:56.722Z,12.13
2018-02-13T00:41:25.156Z,12.55
2018-02-13T00:43:53.591Z,12.30
2018-02-13T00:46:21.970Z,12.07
2018-02-13T00:48:51.054Z,10.85
2018-02-13T00:51:19.466Z,10.65
2018-02-13T00:53:47.865Z,11.60
2018-02-13T00:56:16.275Z,10.70
2018-02-13T00:58:44.671Z,11.70
2018-02-13T01:01:13.129Z,12.43
2018-02-13T01:03:41.588Z,11.38
2018-02-13T01:06:10.031Z,12.18
2018-02-13T01:08:38.400Z,12.65
2018-02-13T01:11:06.823Z,12.35
2018-02-13T01:13:35.289Z,13.93
2018-02-13T01:16:03.759Z,11.27
2018-02-13T01:18:32.170Z,12.98
2018-02-13T01:21:00.575Z,12.18
2018-02-13T01:23:28.974Z,12.05
2018-02-13T01:25:57.428Z,11.27
2018-02-13T01:28:25.842Z,12.45
2018-02-13T01:30:54.593Z,10.70
2018-02-13T01:33:23.028Z,12.68
2018-02-13T01:35:51.436Z,12.20
2018-02-13T01:38:19.841Z,12.35
2018-02-13T01:40:48.265Z,12.57
2018-02-13T01:43:16.722Z,11.35
2018-02-13T01:45:45.129Z,12.35
2018-02-13T01:48:13.532Z,10.20
2018-02-13T01:50:41.949Z,12.43
2018-02-13T01:53:10.351Z,11.35
2018-02-13T01:55:38.900Z,12.27
2018-02-13T01:58:07.314Z,11.90
2018-02-13T02:00:35.789Z,12.43
2018-02-13T02:03:04.205Z,12.00
2018-02-13T02:05:32.741Z,12.70
2018-02-13T02:08:01.107Z,12.80
2018-02-13T02:10:29.516Z,12.85
2018-02-13T02:12:57.988Z,13.65
2018-02-13T02:15:26.494Z,13.32
2018-02-13T02:17:54.894Z,13.02
2018-02-13T02:20:23.272Z,12.45
2018-02-13T02:22:51.787Z,11.70
2018-02-13T02:25:20.329Z,11.73
2018-02-13T02:27:48.726Z,12.13
2018-02-13T02:30:17.140Z,12.55
2018-02-13T02:32:45.617Z,12.50
2018-02-13T02:35:14.010Z,13.35
2018-02-13T02:37:42.756Z,12.43
2018-02-13T02:40:11.157Z,12.48
2018-02-13T02:42:51.304Z,12.82
2018-02-13T02:45:19.707Z,12.37
2018-02-13T02:47:48.111Z,12.25
2018-02-13T02:50:16.531Z,11.40
2018-02-13T02:52:44.930Z,10.98
2018-02-13T02:55:13.486Z,9.70
2018-02-13T02:57:41.915Z,11.20
2018-02-13T03:00:10.319Z,11.00
2018-02-13T03:02:38.717Z,9.50
2018-02-13T03:05:07.105Z,9.55
2018-02-13T03:07:35.582Z,11.10
2018-02-13T03:10:03.996Z,11.45
2018-02-13T03:12:32.377Z,10.27
2018-02-13T03:15:00.794Z,9.60
2018-02-13T03:17:29.171Z,9.38
2018-02-13T03:19:57.726Z,9.90
2018-02-13T03:22:26.128Z,10.85
2018-02-13T03:24:54.547Z,11.00
2018-02-13T03:27:23.037Z,10.25
2018-02-13T03:29:51.417Z,9.45
2018-02-13T03:32:19.857Z,9.15
2018-02-13T03:34:48.331Z,9.38
2018-02-13T03:37:16.796Z,8.63
2018-02-13T03:39:45.232Z,9.57
2018-02-13T03:42:13.622Z,8.88
2018-02-13T03:44:42.093Z,9.25
2018-02-13T03:47:10.520Z,9.20
2018-02-13T03:49:39.087Z,8.90
2018-02-13T03:52:07.497Z,10.38
2018-02-13T03:54:55.606Z,9.80
2018-02-13T03:57:23.990Z,9.15
2018-02-13T03:59:52.431Z,8.95
2018-02-13T04:02:20.913Z,8.02
2018-02-13T04:04:49.302Z,9.02
2018-02-13T04:07:17.705Z,8.07
2018-02-13T04:09:46.159Z,8.02
2018-02-13T04:12:14.554Z,7.65
2018-02-13T04:14:43.324Z,8.00
2018-02-13T04:17:11.730Z,7.53
2018-02-13T04:19:40.120Z,6.10
2018-02-13T04:22:08.612Z,6.57
2018-02-13T04:24:36.993Z,7.00
2018-02-13T04:27:05.474Z,5.93
2018-02-13T04:29:33.877Z,6.28
2018-02-13T04:32:02.266Z,7.53
2018-02-13T04:34:30.728Z,6.40
2018-02-13T04:36:59.149Z,5.50
2018-02-13T04:39:27.604Z,5.60
2018-02-13T04:41:55.999Z,5.65
2018-02-13T04:44:24.466Z,6.25
2018-02-13T04:46:52.888Z,5.55
2018-02-13T04:49:21.271Z,5.50
2018-02-13T04:51:49.746Z,4.78
2018-02-13T04:54:18.139Z,5.50
2018-02-13T04:56:46.509Z,4.47
2018-02-13T04:59:14.928Z,4.87
2018-02-13T05:01:43.329Z,4.75
2018-02-13T05:04:11.863Z,4.70
2018-02-13T05:06:40.255Z,4.30
2018-02-13T05:09:08.647Z,6.40
2018-02-13T05:11:37.046Z,4.65
2018-02-13T05:14:05.444Z,4.87
2018-02-13T05:16:34.831Z,4.68
2018-02-13T05:19:03.230Z,4.22
2018-02-13T05:21:31.638Z,4.30
2018-02-13T05:24:00.029Z,4.35
2018-02-13T05:26:28.404Z,4.00
2018-02-13T05:28:56.901Z,4.43
2018-02-13T05:31:25.305Z,4.72
2018-02-13T05:33:53.706Z,4.62
2018-02-13T05:36:22.090Z,3.37
2018-02-13T05:38:50.487Z,3.80
2018-02-13T05:41:18.927Z,4.20
2018-02-13T05:43:47.339Z,4.03
2018-02-13T05:46:15.752Z,3.33
2018-02-13T05:48:44.258Z,3.80
2018-02-13T05:51:12.683Z,4.50
2018-02-13T05:53:41.175Z,4.72
2018-02-13T05:56:09.564Z,4.97
2018-02-13T05:58:37.950Z,4.70
2018-02-13T06:01:06.431Z,4.20
2018-02-13T06:03:34.822Z,4.37
2018-02-13T06:06:03.286Z,5.37
2018-02-13T06:08:31.707Z,4.55
2018-02-13T06:11:00.131Z,4.78
2018-02-13T06:13:28.545Z,4.70
2018-02-13T06:15:56.943Z,4.30
2018-02-13T06:18:25.404Z,5.65
2018-02-13T06:20:53.849Z,3.90
2018-02-13T06:23:22.202Z,4.25
2018-02-13T06:25:50.605Z,5.57
2018-02-13T06:28:18.977Z,4.70
2018-02-13T06:30:47.478Z,5.45
2018-02-13T06:33:15.864Z,5.82
2018-02-13T06:35:44.332Z,5.03
2018-02-13T06:38:12.749Z,4.32
2018-02-13T06:40:41.315Z,5.10
2018-02-13T06:43:09.732Z,4.80
2018-02-13T06:45:38.144Z,4.50
2018-02-13T06:48:06.603Z,4.90
2018-02-13T06:50:35.108Z,5.05
2018-02-13T06:53:03.482Z,5.03
2018-02-13T06:55:31.893Z,5.68
2018-02-13T06:58:00.436Z,6.00
2018-02-13T07:00:28.841Z,5.72
2018-02-13T07:02:57.257Z,5.97
2018-02-13T07:05:25.838Z,6.05
2018-02-13T07:07:54.329Z,5.50
2018-02-13T07:10:23.072Z,5.43
2018-02-13T07:12:51.473Z,5.37
2018-02-13T07:15:19.914Z,6.30
2018-02-13T07:17:48.329Z,5.80
2018-02-13T07:20:16.861Z,5.78
2018-02-13T07:22:45.311Z,5.18
2018-02-13T07:25:13.697Z,4.68
2018-02-13T07:27:42.143Z,4.87
2018-02-13T07:30:10.643Z,4.50
2018-02-13T07:32:39.061Z,4.28
2018-02-13T07:35:07.520Z,4.53
2018-02-13T07:37:35.914Z,4.22
2018-02-13T07:40:04.357Z,3.78
2018-02-13T07:42:32.794Z,3.67
2018-02-13T07:45:01.577Z,3.37
2018-02-13T07:47:31.354Z,3.53
2018-02-13T07:49:59.935Z,3.83
2018-02-13T07:52:28.775Z,3.15
2018-02-13T07:54:57.372Z,3.25
2018-02-13T07:57:25.902Z,2.65
2018-02-13T07:59:54.314Z,2.37
2018-02-13T08:02:22.703Z,2.70
2018-02-13T08:04:51.249Z,3.05
2018-02-13T08:07:19.635Z,2.80
2018-02-13T08:09:48.022Z,2.67
2018-02-13T08:12:16.547Z,2.30
2018-02-13T08:14:44.947Z,3.17
2018-02-13T08:17:13.486Z,2.22
2018-02-13T08:19:41.888Z,2.55
2018-02-13T08:22:10.267Z,3.00
2018-02-13T08:24:38.678Z,2.60
2018-02-13T08:27:07.087Z,2.87
2018-02-13T08:29:35.563Z,2.50
2018-02-13T08:32:03.960Z,2.75
2018-02-13T08:34:32.352Z,2.12
2018-02-13T08:37:00.755Z,2.50
2018-02-13T08:39:29.145Z,2.30
2018-02-13T08:41:57.635Z,3.55
2018-02-13T08:44:26.044Z,2.30
2018-02-13T08:46:54.460Z,2.40
2018-02-13T08:49:22.982Z,2.17
2018-02-13T08:51:51.380Z,2.15
2018-02-13T08:54:20.022Z,2.20
2018-02-13T08:56:48.432Z,2.08
2018-02-13T08:59:16.926Z,2.08
2018-02-13T09:01:45.332Z,1.98
2018-02-13T09:04:13.738Z,1.95
2018-02-13T09:06:42.511Z,2.25
2018-02-13T09:09:10.932Z,2.42
2018-02-13T09:11:39.312Z,3.28
2018-02-13T09:14:07.694Z,2.33
2018-02-13T09:16:36.114Z,2.40
2018-02-13T09:19:04.564Z,2.10
2018-02-13T09:21:32.945Z,2.00
2018-02-13T09:24:01.334Z,2.50
2018-02-13T09:26:29.765Z,3.13
2018-02-13T09:28:58.145Z,2.20
2018-02-13T09:31:26.623Z,2.43
2018-02-13T09:33:55.016Z,2.07
2018-02-13T09:36:23.422Z,2.30
2018-02-13T09:38:51.809Z,2.40
2018-02-13T09:41:20.207Z,1.97
2018-02-13T09:46:23.542Z,1.50
2018-02-13T09:48:52.073Z,2.30
2018-02-13T09:51:20.491Z,2.10
2018-02-13T09:53:48.900Z,2.37
2018-02-13T09:56:17.403Z,1.63
2018-02-13T09:58:45.774Z,1.57
2018-02-13T10:01:14.247Z,2.10
2018-02-13T10:03:42.725Z,1.87
2018-02-13T10:06:11.159Z,1.93
2018-02-13T10:08:39.582Z,2.00
2018-02-13T10:11:08.019Z,2.10
2018-02-13T10:13:36.579Z,2.23
2018-02-13T10:16:05.004Z,1.73
2018-02-13T10:18:33.486Z,2.10
2018-02-13T10:21:01.899Z,1.87
2018-02-13T10:23:30.359Z,1.73
2018-02-13T10:25:58.952Z,2.07
2018-02-13T10:28:27.418Z,2.33
2018-02-13T10:30:55.824Z,1.50
2018-02-13T10:33:24.236Z,1.77
2018-02-13T10:35:52.630Z,2.20
2018-02-13T10:38:21.214Z,2.30
2018-02-13T10:40:49.678Z,2.87
2018-02-13T10:43:18.093Z,2.93
2018-02-13T10:45:46.500Z,2.63
2018-02-13T10:48:14.898Z,4.17
2018-02-13T10:50:43.373Z,4.50
2018-02-13T10:53:11.761Z,4.97
2018-02-13T10:55:40.167Z,6.60
2018-02-13T10:58:08.571Z,6.60
2018-02-13T11:00:44.130Z,7.07
2018-02-13T11:03:12.531Z,6.20
2018-02-13T11:05:41.019Z,6.23
2018-02-13T11:08:09.865Z,7.10
2018-02-13T11:10:38.295Z,5.47
2018-02-13T11:13:06.697Z,5.03
2018-02-13T11:15:35.098Z,7.90
2018-02-13T11:18:03.525Z,6.73
2018-02-13T11:20:32.071Z,5.53
2018-02-13T11:23:00.545Z,5.30
2018-02-13T11:25:28.946Z,4.40
2018-02-13T11:27:57.451Z,3.90
2018-02-13T11:30:25.875Z,4.87
2018-02-13T11:32:54.381Z,6.50
2018-02-13T11:35:22.802Z,5.20
2018-02-13T11:37:51.309Z,6.03
2018-02-13T11:40:19.803Z,4.80
2018-02-13T11:42:48.214Z,5.00
2018-02-13T11:45:16.783Z,6.50
2018-02-13T11:47:45.189Z,7.25
2018-02-13T11:50:13.582Z,9.10
2018-02-13T11:52:42.007Z,8.80
2018-02-13T11:55:10.419Z,6.10
2018-02-13T11:57:38.962Z,8.45
2018-02-13T12:00:07.822Z,9.27
2018-02-13T12:02:36.219Z,10.65
2018-02-13T12:05:04.674Z,7.63
2018-02-13T12:07:33.073Z,4.57
2018-02-13T12:10:01.550Z,5.50
2018-02-13T12:12:29.978Z,7.10
2018-02-13T12:14:58.520Z,5.37
2018-02-13T12:17:26.926Z,7.07
2018-02-13T12:19:55.343Z,7.00
2018-02-13T12:22:23.817Z,8.00
2018-02-13T12:24:52.205Z,7.70
2018-02-13T12:27:20.617Z,6.47
2018-02-13T12:29:49.034Z,6.40
2018-02-13T12:32:17.427Z,4.90
2018-02-13T12:34:45.884Z,4.10
2018-02-13T12:37:14.296Z,4.73
2018-02-13T12:42:36.839Z,4.47
2018-02-13T12:45:05.454Z,3.93
2018-02-13T12:47:33.877Z,4.40
2018-02-13T12:50:16.204Z,4.60
2018-02-13T12:52:44.847Z,6.50
2018-02-13T12:55:13.351Z,5.10
2018-02-13T12:57:41.762Z,4.40
2018-02-13T13:00:10.198Z,4.93
2018-02-13T13:02:38.615Z,5.37
2018-02-13T13:05:07.974Z,4.90
2018-02-13T13:07:36.406Z,5.10
2018-02-13T13:10:05.040Z,4.97
2018-02-13T13:12:33.443Z,5.33
2018-02-13T13:15:01.837Z,5.30
2018-02-13T13:17:30.261Z,5.23
2018-02-13T13:19:58.648Z,4.60
2018-02-13T13:22:27.122Z,5.27
2018-02-13T13:24:55.537Z,5.40
2018-02-13T13:27:23.961Z,5.53
2018-02-13T13:29:52.400Z,5.13
2018-02-13T13:32:20.795Z,4.95
2018-02-13T13:34:49.350Z,6.18
2018-02-13T13:37:17.805Z,5.50
2018-02-13T13:39:46.257Z,5.30
2018-02-13T13:42:14.695Z,5.35
2018-02-13T13:44:43.099Z,5.50
2018-02-13T13:47:11.506Z,5.50
2018-02-13T13:49:39.898Z,4.70
2018-02-13T13:52:08.658Z,5.12
2018-02-13T13:54:37.062Z,5.07
2018-02-13T13:57:05.462Z,5.50
2018-02-13T13:59:33.871Z,4.45
2018-02-13T14:02:02.273Z,6.05
2018-02-13T14:04:30.828Z,5.35
2018-02-13T14:07:00.601Z,5.95
2018-02-13T14:09:29.036Z,5.22
2018-02-13T14:11:57.454Z,5.20
2018-02-13T14:14:26.003Z,5.40
2018-02-13T14:16:54.417Z,5.55
2018-02-13T14:19:22.900Z,5.57
2018-02-13T14:21:51.381Z,6.22
2018-02-13T14:24:19.776Z,6.12
2018-02-13T14:26:48.206Z,5.75
2018-02-13T14:29:16.592Z,6.15
2018-02-13T14:31:45.013Z,5.72
2018-02-13T14:34:13.469Z,6.15
2018-02-13T14:36:41.963Z,6.03
2018-02-13T14:39:10.399Z,5.55
2018-02-13T14:41:38.799Z,5.70
2018-02-13T14:44:07.223Z,6.50
2018-02-13T14:46:35.752Z,6.25
2018-02-13T14:49:04.167Z,5.55
2018-02-13T14:51:32.569Z,6.80
2018-02-13T14:54:00.952Z,6.30
2018-02-13T14:56:29.363Z,5.95
2018-02-13T14:58:57.848Z,5.62
2018-02-13T15:01:26.366Z,5.65
2018-02-13T15:03:54.773Z,5.82
2018-02-13T15:06:23.182Z,6.53
2018-02-13T15:08:51.581Z,5.95
2018-02-13T15:11:20.038Z,4.82
2018-02-13T15:13:48.446Z,5.72
2018-02-13T15:16:16.830Z,5.45
2018-02-13T15:18:45.267Z,5.45
2018-02-13T15:21:13.652Z,6.28
2018-02-13T15:23:42.079Z,5.10
2018-02-13T15:26:10.666Z,5.22
2018-02-13T15:28:39.254Z,4.30
2018-02-13T15:31:07.707Z,5.05
2018-02-13T15:33:36.048Z,5.07
2018-02-13T15:36:04.448Z,5.28
2018-02-13T15:38:32.852Z,5.30
2018-02-13T15:41:01.413Z,4.40
2018-02-13T15:43:29.833Z,4.70
2018-02-13T15:45:58.212Z,5.37
2018-02-13T15:48:26.607Z,4.85
2018-02-13T15:50:54.986Z,4.57
2018-02-13T15:53:23.462Z,5.53
2018-02-13T15:55:51.867Z,5.12
2018-02-13T15:58:20.282Z,4.87
2018-02-13T16:00:48.657Z,4.40
2018-02-13T16:03:17.072Z,5.80
2018-02-13T16:05:45.553Z,5.75
2018-02-13T16:08:13.939Z,4.82
2018-02-13T16:10:42.383Z,5.37
2018-02-13T16:13:10.801Z,5.05
2018-02-13T16:15:39.217Z,5.15
2018-02-13T16:18:07.625Z,4.60
2018-02-13T16:20:36.042Z,4.95
2018-02-13T16:23:04.502Z,5.30
2018-02-13T16:25:32.887Z,5.50
2018-02-13T16:28:01.413Z,4.95
2018-02-13T16:30:29.827Z,6.15
2018-02-13T16:32:58.228Z,5.45
2018-02-13T16:35:26.865Z,4.62
2018-02-13T16:37:55.265Z,5.90
2018-02-13T16:40:23.673Z,5.55
2018-02-13T16:42:53.980Z,5.25
2018-02-13T16:45:22.382Z,5.12
2018-02-13T16:47:50.770Z,4.70
2018-02-13T16:50:19.166Z,5.12
2018-02-13T16:52:47.666Z,4.93
2018-02-13T16:55:16.046Z,4.90
2018-02-13T16:57:44.612Z,5.05
2018-02-13T17:00:13.004Z,4.72
2018-02-13T17:02:41.414Z,5.12
2018-02-13T17:05:09.897Z,5.25
2018-02-13T17:07:38.305Z,5.25
2018-02-13T17:10:06.770Z,5.05
2018-02-13T17:12:35.219Z,5.35
2018-02-13T17:15:03.679Z,5.57
2018-02-13T17:17:32.097Z,4.65
2018-02-13T17:20:00.522Z,5.07
2018-02-13T17:22:28.995Z,5.53
2018-02-13T17:24:57.418Z,6.07
2018-02-13T17:27:25.797Z,5.57
2018-02-13T17:29:54.181Z,7.80
2018-02-13T17:32:22.588Z,5.75
2018-02-13T17:34:51.060Z,6.60
2018-02-13T17:37:20.604Z,5.37
2018-02-13T17:39:49.091Z,5.90
2018-02-13T17:42:17.473Z,6.72
2018-02-13T17:44:46.103Z,6.53
2018-02-13T17:47:14.702Z,5.97
2018-02-13T17:49:43.119Z,6.43
2018-02-13T17:52:11.512Z,5.95
2018-02-13T17:54:39.913Z,6.82
2018-02-13T17:57:08.317Z,5.37
2018-02-13T17:59:36.898Z,6.80
2018-02-13T18:02:05.398Z,7.12
2018-02-13T18:04:33.781Z,6.90
2018-02-13T18:07:02.169Z,6.20
2018-02-13T18:09:30.557Z,5.90
2018-02-13T18:11:59.122Z,6.10
2018-02-13T18:14:27.519Z,6.28
2018-02-13T18:16:55.950Z,6.45
2018-02-13T18:19:24.364Z,6.30
2018-02-13T18:21:52.782Z,5.75
2018-02-13T18:24:21.997Z,6.87
2018-02-13T18:26:50.474Z,6.45
2018-02-13T18:29:19.063Z,6.03
2018-02-13T18:31:47.502Z,6.20
2018-02-13T18:34:15.962Z,6.55
2018-02-13T18:36:44.369Z,7.37
2018-02-13T18:39:12.778Z,7.30
2018-02-13T18:41:41.523Z,6.65
2018-02-13T18:44:09.914Z,6.53
2018-02-13T18:46:38.460Z,7.78
2018-02-13T18:49:06.856Z,8.18
2018-02-13T18:51:35.249Z,6.40
2018-02-13T18:54:03.796Z,6.78
2018-02-13T18:56:32.195Z,6.57
2018-02-13T18:59:00.612Z,7.10
2018-02-13T19:01:29.013Z,6.70
2018-02-13T19:03:57.414Z,7.32
2018-02-13T19:06:25.982Z,6.37
2018-02-13T19:08:54.351Z,7.35
2018-02-13T19:11:22.744Z,6.30
2018-02-13T19:13:51.246Z,7.78
2018-02-13T19:16:19.644Z,7.25
2018-02-13T19:18:48.693Z,6.55
2018-02-13T19:21:17.224Z,6.20
2018-02-13T19:23:45.703Z,5.72
2018-02-13T19:26:14.143Z,5.37
2018-02-13T19:28:42.542Z,5.57
2018-02-13T19:31:10.963Z,5.30
2018-02-13T19:33:39.439Z,4.95
2018-02-13T19:36:07.907Z,5.43
2018-02-13T19:38:36.328Z,5.05
2018-02-13T19:41:04.793Z,5.37
2018-02-13T19:43:33.194Z,5.93
2018-02-13T19:46:01.726Z,5.37
2018-02-13T19:48:30.678Z,5.50
2018-02-13T19:50:59.130Z,6.03
2018-02-13T19:53:27.560Z,6.05
2018-02-13T19:55:55.952Z,5.70
2018-02-13T19:58:24.341Z,5.60
2018-02-13T20:00:52.777Z,4.82
2018-02-13T20:03:21.248Z,6.05
2018-02-13T20:05:49.643Z,5.78
2018-02-13T20:08:18.106Z,5.90
2018-02-13T20:10:49.179Z,6.03
2018-02-13T20:13:17.683Z,6.18
2018-02-13T20:15:46.090Z,5.40
2018-02-13T20:18:14.503Z,7.65
2018-02-13T20:20:42.913Z,5.97
2018-02-13T20:23:11.317Z,5.75
2018-02-13T20:25:39.702Z,5.50
2018-02-13T20:28:08.094Z,6.60
2018-02-13T20:30:36.575Z,6.65
2018-02-13T20:33:04.972Z,6.40
2018-02-13T20:35:33.464Z,7.07
2018-02-13T20:38:01.858Z,6.50
2018-02-13T20:40:31.007Z,6.70
2018-02-13T20:42:59.430Z,6.37
2018-02-13T20:45:27.834Z,7.00
2018-02-13T20:47:57.021Z,6.32
2018-02-13T20:50:25.412Z,7.50
2018-02-13T20:52:53.805Z,7.10
2018-02-13T20:55:22.236Z,6.07
2018-02-13T20:57:50.639Z,7.10
2018-02-13T21:00:19.119Z,6.57
2018-02-13T21:02:47.542Z,7.12
2018-02-13T21:05:15.938Z,7.93
2018-02-13T21:07:44.359Z,7.47
2018-02-13T21:10:12.787Z,7.30
2018-02-13T21:12:41.376Z,6.82
2018-02-13T21:15:09.850Z,6.55
2018-02-13T21:17:38.240Z,6.60
2018-02-13T21:20:21.775Z,6.37
2018-02-13T21:22:50.239Z,6.57
2018-02-13T21:25:18.652Z,6.87
2018-02-13T21:27:47.095Z,6.95
2018-02-13T21:30:15.528Z,7.43
2018-02-13T21:32:43.923Z,6.75
2018-02-13T21:35:12.433Z,7.03
2018-02-13T21:37:40.831Z,6.55
2018-02-13T21:40:09.230Z,6.35
2018-02-13T21:42:37.651Z,7.00
2018-02-13T21:45:06.302Z,7.00
2018-02-13T21:47:34.726Z,7.15
2018-02-13T21:50:03.125Z,6.18
2018-02-13T21:52:31.531Z,6.93
2018-02-13T21:54:59.947Z,6.30
2018-02-13T21:57:28.439Z,6.40
2018-02-13T21:59:56.815Z,7.00
2018-02-13T22:02:25.215Z,6.78
2018-02-13T22:04:53.617Z,6.72
2018-02-13T22:07:22.104Z,6.60
2018-02-13T22:09:50.837Z,6.80
2018-02-13T22:12:19.232Z,6.45
2018-02-13T22:14:47.635Z,7.62
2018-02-13T22:17:16.014Z,6.15
2018-02-13T22:19:44.389Z,7.72
2018-02-13T22:22:12.922Z,7.53
2018-02-13T22:24:41.328Z,7.37
2018-02-13T22:27:09.726Z,7.15
2018-02-13T22:29:38.094Z,7.82
2018-02-13T22:32:06.622Z,7.10
2018-02-13T22:34:35.049Z,7.55
2018-02-13T22:37:03.428Z,7.50
2018-02-13T22:39:31.847Z,8.68
2018-02-13T22:42:00.350Z,7.57
2018-02-13T22:44:28.743Z,7.80
2018-02-13T22:46:57.280Z,7.55
2018-02-13T22:49:25.677Z,7.35
2018-02-13T22:51:54.082Z,7.57
2018-02-13T22:54:22.481Z,7.43
2018-02-13T22:56:50.876Z,7.60
2018-02-13T22:59:19.373Z,7.65
2018-02-13T23:01:47.871Z,7.68
2018-02-13T23:04:16.262Z,8.95
2018-02-13T23:06:44.754Z,8.40
2018-02-13T23:09:13.375Z,8.68
2018-02-13T23:11:42.277Z,9.25
2018-02-13T23:14:10.690Z,8.77
2018-02-13T23:16:39.092Z,7.82
2018-02-13T23:19:07.572Z,7.80
2018-02-13T23:21:36.031Z,7.80
2018-02-13T23:24:04.504Z,8.00
2018-02-13T23:26:32.892Z,8.45
2018-02-13T23:29:01.296Z,8.27
2018-02-13T23:31:29.839Z,8.35
2018-02-13T23:33:58.300Z,7.18
2018-02-13T23:36:26.659Z,7.65
2018-02-13T23:38:55.092Z,8.13
2018-02-13T23:41:23.502Z,8.43
2018-02-13T23:43:51.991Z,8.43
2018-02-13T23:46:20.406Z,9.15
2018-02-13T23:48:48.884Z,8.38
2018-02-13T23:51:17.279Z,8.27
2018-02-13T23:53:45.751Z,7.85
2018-02-13T23:56:14.139Z,7.60
2018-02-13T23:58:42.529Z,7.93
